Terminal Aerodrome Forecast
Issued by NWS Blacksburg, VA

Home | Current Version | Previous Version | Text Only | Print | Product List | Glossary On
Versions: 1 2 3 4 5 6 7 8 9 10 11 12 13 14 15 16 17 18 19 20 21 22 23 24 25 26
000
FTUS41 KRNK 232344
TAFBLF
TAF
KBLF 232344Z 2400/2424 14016G30KT 4SM RA BR OVC015 WS014/14043KT
      TEMPO 2400/2402 2SM -RA BR OVC008
     FM240400 17011G18KT 6SM -RA BR OVC015
     FM240700 20012G22KT P6SM BKN035
     FM241600 23016G30KT P6SM SCT040=

USA.gov is the U.S. government's official web portal to all federal, state and local government web resources and services.